This is the latest recevied weather packets stored in our database for station/object IW2DGQ-3. If no packets are shown the sender has not sent any weather packets the latest 10 day(s).
| Time | Temp. | Humidity | Pressure | Rain* | Wind** | Luminosity | Snow |
|---|---|---|---|---|---|---|---|
| 1787866764 | 25.56° C | 78% | 1017.8 hPa | - | - | - | - |
| 1787865563 | 25.56° C | 78% | 1017.9 hPa | - | - | - | - |
| 1787864363 | 25.56° C | 77% | 1017.5 hPa | - | - | - | - |
| 1787863163 | 26.11° C | 76% | 1017.4 hPa | - | - | - | - |
| 1787861963 | 26.11° C | 75% | 1017.7 hPa | - | - | - | - |
| 1787860762 | 26.67° C | 75% | 1017.7 hPa | - | - | - | - |
| 1787859562 | 26.67° C | 74% | 1017.5 hPa | - | - | - | - |
| 1787858362 | 27.22° C | 73% | 1017.4 hPa | - | - | - | - |
| 1787857161 | 27.22° C | 71% | 1017.3 hPa | - | - | - | - |
| 1787855961 | 27.78° C | 70% | 1017.1 hPa | - | - | - | - |
| 1787854761 | 28.33° C | 68% | 1016.9 hPa | - | - | - | - |
| 1787853560 | 28.89° C | 66% | 1016.9 hPa | - | - | - | - |
| 1787852360 | 29.44° C | 62% | 1016.6 hPa | - | - | - | - |
| 1787851160 | 30° C | 59% | 1016.8 hPa | - | - | - | - |
| 1787849959 | 31.11° C | 54% | 1016.7 hPa | - | - | - | - |
| 1787848759 | 31.67° C | 53% | 1016.9 hPa | - | - | - | - |
| 1787847559 | 32.22° C | 52% | 1016.9 hPa | - | - | - | - |
| 1787846358 | 32.22° C | 52% | 1016.7 hPa | - | - | - | - |
| 1787845158 | 32.78° C | 52% | 1016.6 hPa | - | - | - | - |
| 1787843958 | 33.33° C | 51% | 1016.8 hPa | - | - | - | - |
| 1787842757 | 33.33° C | 51% | 1016.8 hPa | - | - | - | - |
| 1787841557 | 33.89° C | 50% | 1016.8 hPa | - | - | - | - |
| 1787840357 | 34.44° C | 50% | 1016.8 hPa | - | - | - | - |
| 1787839216 | 33.89° C | 50% | 1016.8 hPa | - | - | - | - |
| 1787838016 | 34.44° C | 49% | 1016.9 hPa | - | - | - | - |
* Rain since midnight (hover to see other rain measurements)
** Current wind speed in m/s (hover to see current wind gust speed)